sensor_id;sensor_type;location;lat;lon;timestamp;temperature;humidity
11136;DHT22;5622;50.840;4.948;2023-05-10T00:01:01;13.30;99.90
11136;DHT22;5622;50.840;4.948;2023-05-10T00:03:55;13.30;99.90
11136;DHT22;5622;50.840;4.948;2023-05-10T00:06:57;13.10;99.90
11136;DHT22;5622;50.840;4.948;2023-05-10T00:09:36;13.20;99.90
11136;DHT22;5622;50.840;4.948;2023-05-10T00:12:23;13.10;99.90
11136;DHT22;5622;50.840;4.948;2023-05-10T00:14:59;13.10;99.90
11136;DHT22;5622;50.840;4.948;2023-05-10T00:18:06;13.00;99.90
11136;DHT22;5622;50.840;4.948;2023-05-10T00:20:50;13.10;99.90
11136;DHT22;5622;50.840;4.948;2023-05-10T00:23:40;13.00;99.90
11136;DHT22;5622;50.840;4.948;2023-05-10T00:26:27;12.90;99.90
11136;DHT22;5622;50.840;4.948;2023-05-10T00:29:09;13.00;99.90
11136;DHT22;5622;50.840;4.948;2023-05-10T00:31:43;13.00;99.90
11136;DHT22;5622;50.840;4.948;2023-05-10T00:34:40;12.90;99.90
11136;DHT22;5622;50.840;4.948;2023-05-10T00:47:34;13.00;99.90
11136;DHT22;5622;50.840;4.948;2023-05-10T00:50:17;13.00;99.90
11136;DHT22;5622;50.840;4.948;2023-05-10T00:59:45;13.10;99.90
11136;DHT22;5622;50.840;4.948;2023-05-10T01:02:48;13.10;99.90
11136;DHT22;5622;50.840;4.948;2023-05-10T01:05:33;13.10;99.90
11136;DHT22;5622;50.840;4.948;2023-05-10T01:08:32;13.00;99.90
11136;DHT22;5622;50.840;4.948;2023-05-10T01:14:11;12.80;99.90
11136;DHT22;5622;50.840;4.948;2023-05-10T01:16:53;13.00;99.90
11136;DHT22;5622;50.840;4.948;2023-05-10T01:23:34;13.20;99.90
11136;DHT22;5622;50.840;4.948;2023-05-10T01:26:44;13.00;99.90
11136;DHT22;5622;50.840;4.948;2023-05-10T01:30:07;13.00;99.90
11136;DHT22;5622;50.840;4.948;2023-05-10T01:36:26;13.00;99.90
11136;DHT22;5622;50.840;4.948;2023-05-10T01:42:50;12.90;99.90
11136;DHT22;5622;50.840;4.948;2023-05-10T01:45:47;12.90;99.90
11136;DHT22;5622;50.840;4.948;2023-05-10T01:48:45;12.90;99.90
11136;DHT22;5622;50.840;4.948;2023-05-10T02:01:34;12.90;99.90
11136;DHT22;5622;50.840;4.948;2023-05-10T02:04:21;12.90;99.90
11136;DHT22;5622;50.840;4.948;2023-05-10T02:07:12;12.90;99.90
11136;DHT22;5622;50.840;4.948;2023-05-10T02:09:53;12.70;99.90
11136;DHT22;5622;50.840;4.948;2023-05-10T02:12:39;12.90;99.90
11136;DHT22;5622;50.840;4.948;2023-05-10T02:15:40;13.00;99.90
11136;DHT22;5622;50.840;4.948;2023-05-10T02:18:46;12.90;99.90
11136;DHT22;5622;50.840;4.948;2023-05-10T02:21:34;12.90;99.90
11136;DHT22;5622;50.840;4.948;2023-05-10T02:24:30;12.90;99.90
11136;DHT22;5622;50.840;4.948;2023-05-10T02:27:19;12.90;99.90
11136;DHT22;5622;50.840;4.948;2023-05-10T02:30:10;12.90;99.90
11136;DHT22;5622;50.840;4.948;2023-05-10T05:28:27;12.60;99.90
11136;DHT22;5622;50.840;4.948;2023-05-10T05:30:58;12.60;99.90
11136;DHT22;5622;50.840;4.948;2023-05-10T05:33:26;12.60;99.90
11136;DHT22;5622;50.840;4.948;2023-05-10T05:35:54;12.60;99.90
11136;DHT22;5622;50.840;4.948;2023-05-10T05:38:32;12.60;99.90
11136;DHT22;5622;50.840;4.948;2023-05-10T05:41:03;12.60;99.90
11136;DHT22;5622;50.840;4.948;2023-05-10T05:43:32;12.70;99.90
11136;DHT22;5622;50.840;4.948;2023-05-10T05:46:01;12.70;99.90
11136;DHT22;5622;50.840;4.948;2023-05-10T05:48:33;12.70;99.90
11136;DHT22;5622;50.840;4.948;2023-05-10T05:54:27;12.50;99.90
11136;DHT22;5622;50.840;4.948;2023-05-10T05:56:56;12.50;99.90
11136;DHT22;5622;50.840;4.948;2023-05-10T05:59:34;13.40;99.90
11136;DHT22;5622;50.840;4.948;2023-05-10T06:02:07;12.70;99.90
11136;DHT22;5622;50.840;4.948;2023-05-10T06:04:36;12.90;99.90
11136;DHT22;5622;50.840;4.948;2023-05-10T06:07:07;12.70;99.90
11136;DHT22;5622;50.840;4.948;2023-05-10T06:09:38;12.70;99.90
11136;DHT22;5622;50.840;4.948;2023-05-10T06:12:28;12.70;99.90
11136;DHT22;5622;50.840;4.948;2023-05-10T06:15:40;12.80;99.90
11136;DHT22;5622;50.840;4.948;2023-05-10T06:18:12;12.70;99.90
11136;DHT22;5622;50.840;4.948;2023-05-10T06:20:55;12.70;99.90
11136;DHT22;5622;50.840;4.948;2023-05-10T06:23:39;12.70;99.90
11136;DHT22;5622;50.840;4.948;2023-05-10T06:26:32;12.70;99.90
11136;DHT22;5622;50.840;4.948;2023-05-10T06:29:02;12.80;99.90
11136;DHT22;5622;50.840;4.948;2023-05-10T06:31:56;12.90;99.90
11136;DHT22;5622;50.840;4.948;2023-05-10T06:34:24;12.80;99.90
11136;DHT22;5622;50.840;4.948;2023-05-10T06:36:54;12.40;99.90
11136;DHT22;5622;50.840;4.948;2023-05-10T06:39:25;12.90;99.90
11136;DHT22;5622;50.840;4.948;2023-05-10T06:41:53;12.90;99.90
11136;DHT22;5622;50.840;4.948;2023-05-10T06:44:22;12.60;99.90
11136;DHT22;5622;50.840;4.948;2023-05-10T06:46:57;13.10;99.90
11136;DHT22;5622;50.840;4.948;2023-05-10T06:49:28;13.00;99.90
11136;DHT22;5622;50.840;4.948;2023-05-10T06:52:03;12.60;99.90
11136;DHT22;5622;50.840;4.948;2023-05-10T06:54:36;13.10;99.90
11136;DHT22;5622;50.840;4.948;2023-05-10T06:57:12;12.90;99.90
11136;DHT22;5622;50.840;4.948;2023-05-10T06:59:48;13.00;99.90
11136;DHT22;5622;50.840;4.948;2023-05-10T07:02:37;13.00;99.90
11136;DHT22;5622;50.840;4.948;2023-05-10T07:05:12;13.10;99.90
11136;DHT22;5622;50.840;4.948;2023-05-10T07:07:43;13.00;99.90
11136;DHT22;5622;50.840;4.948;2023-05-10T07:10:16;13.10;99.90
11136;DHT22;5622;50.840;4.948;2023-05-10T07:12:49;12.90;99.90
11136;DHT22;5622;50.840;4.948;2023-05-10T07:15:25;12.80;99.90
11136;DHT22;5622;50.840;4.948;2023-05-10T07:17:59;12.80;99.90
11136;DHT22;5622;50.840;4.948;2023-05-10T07:24:05;12.70;99.90
11136;DHT22;5622;50.840;4.948;2023-05-10T07:26:47;12.70;99.90
11136;DHT22;5622;50.840;4.948;2023-05-10T07:29:18;12.70;99.90
11136;DHT22;5622;50.840;4.948;2023-05-10T07:31:49;13.20;99.90
11136;DHT22;5622;50.840;4.948;2023-05-10T07:34:22;12.70;99.90
11136;DHT22;5622;50.840;4.948;2023-05-10T07:36:56;12.80;99.90
11136;DHT22;5622;50.840;4.948;2023-05-10T07:39:25;12.60;99.90
11136;DHT22;5622;50.840;4.948;2023-05-10T07:41:54;12.70;99.90
11136;DHT22;5622;50.840;4.948;2023-05-10T07:44:26;12.60;99.90
11136;DHT22;5622;50.840;4.948;2023-05-10T07:46:56;12.50;99.90
11136;DHT22;5622;50.840;4.948;2023-05-10T07:49:26;12.60;99.90
11136;DHT22;5622;50.840;4.948;2023-05-10T07:52:05;12.60;99.90
11136;DHT22;5622;50.840;4.948;2023-05-10T07:54:43;12.70;99.90
11136;DHT22;5622;50.840;4.948;2023-05-10T07:57:24;12.60;99.90
11136;DHT22;5622;50.840;4.948;2023-05-10T07:59:53;12.30;99.90
11136;DHT22;5622;50.840;4.948;2023-05-10T08:02:23;12.70;99.90
11136;DHT22;5622;50.840;4.948;2023-05-10T08:04:58;12.60;99.90
11136;DHT22;5622;50.840;4.948;2023-05-10T08:07:27;12.60;99.90
11136;DHT22;5622;50.840;4.948;2023-05-10T08:09:55;12.70;99.90
11136;DHT22;5622;50.840;4.948;2023-05-10T08:12:24;12.60;99.90
11136;DHT22;5622;50.840;4.948;2023-05-10T08:14:53;12.60;99.90
11136;DHT22;5622;50.840;4.948;2023-05-10T08:17:23;12.60;99.90
11136;DHT22;5622;50.840;4.948;2023-05-10T08:19:57;12.60;99.90
11136;DHT22;5622;50.840;4.948;2023-05-10T08:22:27;12.60;99.90
11136;DHT22;5622;50.840;4.948;2023-05-10T08:25:03;12.60;99.90
11136;DHT22;5622;50.840;4.948;2023-05-10T08:27:31;12.60;99.90
11136;DHT22;5622;50.840;4.948;2023-05-10T08:29:59;11.80;99.90
11136;DHT22;5622;50.840;4.948;2023-05-10T08:32:27;12.60;99.90
11136;DHT22;5622;50.840;4.948;2023-05-10T08:35:01;12.60;99.90
11136;DHT22;5622;50.840;4.948;2023-05-10T08:37:32;12.60;99.90
11136;DHT22;5622;50.840;4.948;2023-05-10T08:40:00;12.60;99.90
11136;DHT22;5622;50.840;4.948;2023-05-10T08:42:30;12.60;99.90
11136;DHT22;5622;50.840;4.948;2023-05-10T08:45:05;12.50;99.90
11136;DHT22;5622;50.840;4.948;2023-05-10T08:47:36;12.60;99.90
11136;DHT22;5622;50.840;4.948;2023-05-10T08:50:07;12.60;99.90
11136;DHT22;5622;50.840;4.948;2023-05-10T08:52:38;12.50;99.90
11136;DHT22;5622;50.840;4.948;2023-05-10T08:55:06;13.00;99.90
11136;DHT22;5622;50.840;4.948;2023-05-10T08:57:37;12.50;99.90
11136;DHT22;5622;50.840;4.948;2023-05-10T09:00:07;12.60;99.90
11136;DHT22;5622;50.840;4.948;2023-05-10T09:02:36;12.60;99.90
11136;DHT22;5622;50.840;4.948;2023-05-10T09:05:07;12.70;99.90
11136;DHT22;5622;50.840;4.948;2023-05-10T09:07:35;12.60;99.90
11136;DHT22;5622;50.840;4.948;2023-05-10T09:10:04;12.70;99.90
11136;DHT22;5622;50.840;4.948;2023-05-10T09:12:32;12.70;99.90
11136;DHT22;5622;50.840;4.948;2023-05-10T09:15:00;12.80;99.90
11136;DHT22;5622;50.840;4.948;2023-05-10T09:17:30;12.80;99.90
11136;DHT22;5622;50.840;4.948;2023-05-10T09:19:58;12.80;99.90
11136;DHT22;5622;50.840;4.948;2023-05-10T09:22:27;12.80;99.90
11136;DHT22;5622;50.840;4.948;2023-05-10T09:25:05;12.80;99.90
11136;DHT22;5622;50.840;4.948;2023-05-10T09:27:33;12.80;99.90
11136;DHT22;5622;50.840;4.948;2023-05-10T09:30:00;12.80;99.90
11136;DHT22;5622;50.840;4.948;2023-05-10T09:32:36;12.80;99.90
11136;DHT22;5622;50.840;4.948;2023-05-10T09:35:07;12.90;99.90
11136;DHT22;5622;50.840;4.948;2023-05-10T09:37:39;12.80;99.90
11136;DHT22;5622;50.840;4.948;2023-05-10T09:40:12;12.90;99.90
11136;DHT22;5622;50.840;4.948;2023-05-10T09:42:44;12.80;99.90
11136;DHT22;5622;50.840;4.948;2023-05-10T09:45:18;12.90;99.90
11136;DHT22;5622;50.840;4.948;2023-05-10T09:47:47;12.90;99.90
11136;DHT22;5622;50.840;4.948;2023-05-10T09:50:16;12.80;99.90
11136;DHT22;5622;50.840;4.948;2023-05-10T09:52:50;12.90;99.90
11136;DHT22;5622;50.840;4.948;2023-05-10T09:55:21;12.90;99.90
11136;DHT22;5622;50.840;4.948;2023-05-10T09:58:00;12.90;99.90
11136;DHT22;5622;50.840;4.948;2023-05-10T10:00:35;12.90;99.90
11136;DHT22;5622;50.840;4.948;2023-05-10T10:03:03;12.90;99.90
11136;DHT22;5622;50.840;4.948;2023-05-10T10:05:30;12.90;99.90
11136;DHT22;5622;50.840;4.948;2023-05-10T10:08:02;12.90;99.90
11136;DHT22;5622;50.840;4.948;2023-05-10T10:10:31;13.00;99.90
11136;DHT22;5622;50.840;4.948;2023-05-10T10:13:01;12.90;99.90
11136;DHT22;5622;50.840;4.948;2023-05-10T10:15:28;12.90;99.90
11136;DHT22;5622;50.840;4.948;2023-05-10T10:17:55;12.90;99.90
11136;DHT22;5622;50.840;4.948;2023-05-10T10:20:23;13.00;99.90
11136;DHT22;5622;50.840;4.948;2023-05-10T10:22:50;13.00;99.90
11136;DHT22;5622;50.840;4.948;2023-05-10T10:25:20;13.00;99.90
11136;DHT22;5622;50.840;4.948;2023-05-10T10:27:58;13.00;99.90
11136;DHT22;5622;50.840;4.948;2023-05-10T10:30:35;13.00;99.90
11136;DHT22;5622;50.840;4.948;2023-05-10T10:33:38;13.00;99.90
11136;DHT22;5622;50.840;4.948;2023-05-10T10:36:07;13.00;99.90
11136;DHT22;5622;50.840;4.948;2023-05-10T10:41:30;13.10;99.90
11136;DHT22;5622;50.840;4.948;2023-05-10T10:44:25;13.10;99.90
11136;DHT22;5622;50.840;4.948;2023-05-10T10:46:59;13.10;99.90
11136;DHT22;5622;50.840;4.948;2023-05-10T10:49:30;13.10;99.90
11136;DHT22;5622;50.840;4.948;2023-05-10T10:52:14;13.20;99.90
11136;DHT22;5622;50.840;4.948;2023-05-10T10:54:45;13.20;99.90
11136;DHT22;5622;50.840;4.948;2023-05-10T10:57:18;13.20;99.90
11136;DHT22;5622;50.840;4.948;2023-05-10T10:59:47;13.10;99.90
11136;DHT22;5622;50.840;4.948;2023-05-10T11:02:34;13.10;99.90
11136;DHT22;5622;50.840;4.948;2023-05-10T11:08:15;13.40;99.90
11136;DHT22;5622;50.840;4.948;2023-05-10T11:11:06;13.40;99.90
11136;DHT22;5622;50.840;4.948;2023-05-10T11:13:42;13.50;99.90
11136;DHT22;5622;50.840;4.948;2023-05-10T11:16:11;13.50;99.90
11136;DHT22;5622;50.840;4.948;2023-05-10T11:18:39;13.50;99.90
11136;DHT22;5622;50.840;4.948;2023-05-10T11:21:09;13.50;99.90
11136;DHT22;5622;50.840;4.948;2023-05-10T11:23:50;13.50;99.90
11136;DHT22;5622;50.840;4.948;2023-05-10T11:26:18;13.60;99.90
11136;DHT22;5622;50.840;4.948;2023-05-10T11:28:50;13.60;99.90
11136;DHT22;5622;50.840;4.948;2023-05-10T11:31:19;13.80;99.90
11136;DHT22;5622;50.840;4.948;2023-05-10T11:33:48;13.60;99.90
11136;DHT22;5622;50.840;4.948;2023-05-10T11:36:16;13.60;99.90
11136;DHT22;5622;50.840;4.948;2023-05-10T11:38:44;13.60;99.90
11136;DHT22;5622;50.840;4.948;2023-05-10T11:41:12;13.60;99.90
11136;DHT22;5622;50.840;4.948;2023-05-10T11:43:40;13.60;99.90
11136;DHT22;5622;50.840;4.948;2023-05-10T11:46:10;13.70;99.90
11136;DHT22;5622;50.840;4.948;2023-05-10T11:48:39;13.60;99.90
11136;DHT22;5622;50.840;4.948;2023-05-10T11:51:07;13.60;99.90
11136;DHT22;5622;50.840;4.948;2023-05-10T11:53:35;13.60;99.90
11136;DHT22;5622;50.840;4.948;2023-05-10T11:56:06;13.60;99.90
11136;DHT22;5622;50.840;4.948;2023-05-10T11:58:34;13.60;99.90
11136;DHT22;5622;50.840;4.948;2023-05-10T12:01:03;13.70;99.90
11136;DHT22;5622;50.840;4.948;2023-05-10T12:03:32;13.70;99.90
11136;DHT22;5622;50.840;4.948;2023-05-10T12:06:01;13.70;99.90
11136;DHT22;5622;50.840;4.948;2023-05-10T12:08:30;13.70;99.90
11136;DHT22;5622;50.840;4.948;2023-05-10T12:11:05;13.70;99.90
11136;DHT22;5622;50.840;4.948;2023-05-10T12:13:36;13.80;99.90
11136;DHT22;5622;50.840;4.948;2023-05-10T12:16:12;13.80;99.90
11136;DHT22;5622;50.840;4.948;2023-05-10T12:18:41;13.80;99.90
11136;DHT22;5622;50.840;4.948;2023-05-10T12:21:10;13.80;99.90
11136;DHT22;5622;50.840;4.948;2023-05-10T12:23:38;13.80;99.90
11136;DHT22;5622;50.840;4.948;2023-05-10T12:26:05;13.80;99.90
11136;DHT22;5622;50.840;4.948;2023-05-10T12:28:33;13.90;99.90
11136;DHT22;5622;50.840;4.948;2023-05-10T12:31:01;13.90;99.90
11136;DHT22;5622;50.840;4.948;2023-05-10T12:33:35;13.90;99.90
11136;DHT22;5622;50.840;4.948;2023-05-10T12:36:06;13.90;99.90
11136;DHT22;5622;50.840;4.948;2023-05-10T12:38:34;13.90;99.90
11136;DHT22;5622;50.840;4.948;2023-05-10T12:41:04;14.00;99.90
11136;DHT22;5622;50.840;4.948;2023-05-10T12:43:32;13.90;99.90
11136;DHT22;5622;50.840;4.948;2023-05-10T12:46:04;14.00;99.90
11136;DHT22;5622;50.840;4.948;2023-05-10T12:48:31;14.00;99.90
11136;DHT22;5622;50.840;4.948;2023-05-10T12:50:59;14.10;99.90
11136;DHT22;5622;50.840;4.948;2023-05-10T12:53:28;14.10;99.90
11136;DHT22;5622;50.840;4.948;2023-05-10T12:55:55;14.20;99.90
11136;DHT22;5622;50.840;4.948;2023-05-10T12:58:22;14.20;99.90
11136;DHT22;5622;50.840;4.948;2023-05-10T13:00:50;14.20;99.90
11136;DHT22;5622;50.840;4.948;2023-05-10T13:03:18;14.20;99.90
11136;DHT22;5622;50.840;4.948;2023-05-10T13:05:45;14.20;99.90
11136;DHT22;5622;50.840;4.948;2023-05-10T13:08:12;14.20;99.90
11136;DHT22;5622;50.840;4.948;2023-05-10T13:10:41;14.20;99.90
11136;DHT22;5622;50.840;4.948;2023-05-10T13:13:08;14.20;99.90
11136;DHT22;5622;50.840;4.948;2023-05-10T13:15:35;14.20;99.90
11136;DHT22;5622;50.840;4.948;2023-05-10T13:18:02;14.20;99.90
11136;DHT22;5622;50.840;4.948;2023-05-10T13:20:30;14.20;99.90
11136;DHT22;5622;50.840;4.948;2023-05-10T13:22:57;14.20;99.90
11136;DHT22;5622;50.840;4.948;2023-05-10T13:25:24;14.30;99.90
11136;DHT22;5622;50.840;4.948;2023-05-10T13:27:52;14.30;99.90
11136;DHT22;5622;50.840;4.948;2023-05-10T13:30:20;14.30;99.90
11136;DHT22;5622;50.840;4.948;2023-05-10T13:32:47;14.30;99.90
11136;DHT22;5622;50.840;4.948;2023-05-10T13:35:14;14.30;99.90
11136;DHT22;5622;50.840;4.948;2023-05-10T13:37:41;14.30;99.90
11136;DHT22;5622;50.840;4.948;2023-05-10T13:40:09;14.30;99.90
11136;DHT22;5622;50.840;4.948;2023-05-10T13:42:36;14.40;99.90
11136;DHT22;5622;50.840;4.948;2023-05-10T13:45:05;14.30;99.90
11136;DHT22;5622;50.840;4.948;2023-05-10T13:47:32;14.40;99.90
11136;DHT22;5622;50.840;4.948;2023-05-10T13:50:00;14.40;99.90
11136;DHT22;5622;50.840;4.948;2023-05-10T13:52:27;14.40;99.90
11136;DHT22;5622;50.840;4.948;2023-05-10T13:54:54;14.40;99.90
11136;DHT22;5622;50.840;4.948;2023-05-10T13:57:21;14.40;99.90
11136;DHT22;5622;50.840;4.948;2023-05-10T13:59:50;14.40;99.90
11136;DHT22;5622;50.840;4.948;2023-05-10T14:02:19;14.30;99.90
11136;DHT22;5622;50.840;4.948;2023-05-10T14:04:46;14.40;99.90
11136;DHT22;5622;50.840;4.948;2023-05-10T14:07:13;14.40;99.90
11136;DHT22;5622;50.840;4.948;2023-05-10T14:09:41;14.40;99.90
11136;DHT22;5622;50.840;4.948;2023-05-10T14:12:10;14.40;99.90
11136;DHT22;5622;50.840;4.948;2023-05-10T14:14:40;14.30;99.90
11136;DHT22;5622;50.840;4.948;2023-05-10T14:17:08;14.30;99.90
11136;DHT22;5622;50.840;4.948;2023-05-10T14:19:37;14.40;99.90
11136;DHT22;5622;50.840;4.948;2023-05-10T14:22:05;14.40;99.90
11136;DHT22;5622;50.840;4.948;2023-05-10T14:24:32;14.40;99.90
11136;DHT22;5622;50.840;4.948;2023-05-10T14:27:00;14.40;99.90
11136;DHT22;5622;50.840;4.948;2023-05-10T14:29:28;14.50;99.90
11136;DHT22;5622;50.840;4.948;2023-05-10T14:31:55;14.50;99.90
11136;DHT22;5622;50.840;4.948;2023-05-10T14:34:23;14.50;99.90
11136;DHT22;5622;50.840;4.948;2023-05-10T14:36:52;14.50;99.90
11136;DHT22;5622;50.840;4.948;2023-05-10T14:39:19;14.40;99.90
11136;DHT22;5622;50.840;4.948;2023-05-10T14:41:48;14.40;99.90
11136;DHT22;5622;50.840;4.948;2023-05-10T14:44:17;14.40;99.90
11136;DHT22;5622;50.840;4.948;2023-05-10T14:46:44;14.40;99.90
11136;DHT22;5622;50.840;4.948;2023-05-10T14:49:12;14.40;99.90
11136;DHT22;5622;50.840;4.948;2023-05-10T14:51:40;14.40;99.90
11136;DHT22;5622;50.840;4.948;2023-05-10T14:54:09;14.40;99.90
11136;DHT22;5622;50.840;4.948;2023-05-10T14:56:36;14.40;99.90
11136;DHT22;5622;50.840;4.948;2023-05-10T14:59:04;14.50;99.90
11136;DHT22;5622;50.840;4.948;2023-05-10T15:01:31;14.50;99.90
11136;DHT22;5622;50.840;4.948;2023-05-10T15:03:58;14.50;99.90
11136;DHT22;5622;50.840;4.948;2023-05-10T15:06:31;14.40;99.90
11136;DHT22;5622;50.840;4.948;2023-05-10T15:08:58;14.50;99.90
11136;DHT22;5622;50.840;4.948;2023-05-10T15:11:26;14.40;99.90
11136;DHT22;5622;50.840;4.948;2023-05-10T15:13:54;14.40;99.90
11136;DHT22;5622;50.840;4.948;2023-05-10T15:16:21;14.40;99.90
11136;DHT22;5622;50.840;4.948;2023-05-10T15:18:48;14.40;99.90
11136;DHT22;5622;50.840;4.948;2023-05-10T15:21:15;14.40;99.90
11136;DHT22;5622;50.840;4.948;2023-05-10T15:23:42;14.30;99.90
11136;DHT22;5622;50.840;4.948;2023-05-10T15:26:09;14.40;99.90
11136;DHT22;5622;50.840;4.948;2023-05-10T15:28:38;14.30;99.90
11136;DHT22;5622;50.840;4.948;2023-05-10T15:31:05;14.40;99.90
11136;DHT22;5622;50.840;4.948;2023-05-10T15:33:32;14.40;99.90
11136;DHT22;5622;50.840;4.948;2023-05-10T15:35:59;14.50;99.90
11136;DHT22;5622;50.840;4.948;2023-05-10T15:38:26;14.50;99.90
11136;DHT22;5622;50.840;4.948;2023-05-10T15:40:56;14.50;99.90
11136;DHT22;5622;50.840;4.948;2023-05-10T15:43:23;14.50;99.90
11136;DHT22;5622;50.840;4.948;2023-05-10T15:45:52;14.50;99.90
11136;DHT22;5622;50.840;4.948;2023-05-10T15:48:19;14.50;99.90
11136;DHT22;5622;50.840;4.948;2023-05-10T15:50:46;14.50;99.90
11136;DHT22;5622;50.840;4.948;2023-05-10T15:53:13;14.50;99.90
11136;DHT22;5622;50.840;4.948;2023-05-10T15:55:40;14.50;99.90
11136;DHT22;5622;50.840;4.948;2023-05-10T15:58:07;14.50;99.90
11136;DHT22;5622;50.840;4.948;2023-05-10T16:00:34;14.50;99.90
11136;DHT22;5622;50.840;4.948;2023-05-10T16:03:03;14.50;99.90
11136;DHT22;5622;50.840;4.948;2023-05-10T16:05:30;14.60;99.90
11136;DHT22;5622;50.840;4.948;2023-05-10T16:07:58;14.50;99.90
11136;DHT22;5622;50.840;4.948;2023-05-10T16:10:25;14.60;99.90
11136;DHT22;5622;50.840;4.948;2023-05-10T16:12:52;14.60;99.90
11136;DHT22;5622;50.840;4.948;2023-05-10T16:15:20;14.60;99.90
11136;DHT22;5622;50.840;4.948;2023-05-10T16:17:47;14.50;99.90
11136;DHT22;5622;50.840;4.948;2023-05-10T16:20:16;14.60;99.90
11136;DHT22;5622;50.840;4.948;2023-05-10T16:22:43;14.70;99.90
11136;DHT22;5622;50.840;4.948;2023-05-10T16:25:10;14.70;99.90
11136;DHT22;5622;50.840;4.948;2023-05-10T16:27:37;14.70;99.90
11136;DHT22;5622;50.840;4.948;2023-05-10T16:30:05;14.70;99.90
11136;DHT22;5622;50.840;4.948;2023-05-10T16:32:33;14.50;99.90
11136;DHT22;5622;50.840;4.948;2023-05-10T16:35:00;14.40;99.90
11136;DHT22;5622;50.840;4.948;2023-05-10T16:37:28;14.30;99.90
11136;DHT22;5622;50.840;4.948;2023-05-10T16:39:55;14.20;99.90
11136;DHT22;5622;50.840;4.948;2023-05-10T16:42:22;14.10;99.90
11136;DHT22;5622;50.840;4.948;2023-05-10T16:44:50;14.10;99.90
11136;DHT22;5622;50.840;4.948;2023-05-10T16:47:17;14.00;99.90
11136;DHT22;5622;50.840;4.948;2023-05-10T16:49:45;14.00;99.90
11136;DHT22;5622;50.840;4.948;2023-05-10T16:52:13;13.90;99.90
11136;DHT22;5622;50.840;4.948;2023-05-10T16:54:41;13.80;99.90
11136;DHT22;5622;50.840;4.948;2023-05-10T16:57:09;13.80;99.90
11136;DHT22;5622;50.840;4.948;2023-05-10T16:59:36;13.70;99.90
11136;DHT22;5622;50.840;4.948;2023-05-10T17:02:03;13.70;99.90
11136;DHT22;5622;50.840;4.948;2023-05-10T17:04:30;13.60;99.90
11136;DHT22;5622;50.840;4.948;2023-05-10T17:06:57;13.60;99.90
11136;DHT22;5622;50.840;4.948;2023-05-10T17:09:24;13.50;99.90
11136;DHT22;5622;50.840;4.948;2023-05-10T17:11:53;13.50;99.90
11136;DHT22;5622;50.840;4.948;2023-05-10T17:14:20;13.40;99.90
11136;DHT22;5622;50.840;4.948;2023-05-10T17:16:47;13.40;99.90
11136;DHT22;5622;50.840;4.948;2023-05-10T17:19:17;13.40;99.90
11136;DHT22;5622;50.840;4.948;2023-05-10T17:21:44;13.40;99.90
11136;DHT22;5622;50.840;4.948;2023-05-10T17:24:11;13.30;99.90
11136;DHT22;5622;50.840;4.948;2023-05-10T17:26:38;13.40;99.90
11136;DHT22;5622;50.840;4.948;2023-05-10T17:29:06;13.40;99.90
11136;DHT22;5622;50.840;4.948;2023-05-10T17:31:33;13.40;99.90
11136;DHT22;5622;50.840;4.948;2023-05-10T17:34:01;13.40;99.90
11136;DHT22;5622;50.840;4.948;2023-05-10T17:36:28;13.40;99.90
11136;DHT22;5622;50.840;4.948;2023-05-10T17:38:55;13.40;99.90
11136;DHT22;5622;50.840;4.948;2023-05-10T17:41:22;13.40;99.90
11136;DHT22;5622;50.840;4.948;2023-05-10T17:43:49;13.40;99.90
11136;DHT22;5622;50.840;4.948;2023-05-10T17:46:17;13.40;99.90
11136;DHT22;5622;50.840;4.948;2023-05-10T17:48:44;13.40;99.90
11136;DHT22;5622;50.840;4.948;2023-05-10T17:51:11;13.50;99.90
11136;DHT22;5622;50.840;4.948;2023-05-10T17:53:39;13.40;99.90
11136;DHT22;5622;50.840;4.948;2023-05-10T17:56:06;13.40;99.90
11136;DHT22;5622;50.840;4.948;2023-05-10T17:58:34;13.40;99.90
11136;DHT22;5622;50.840;4.948;2023-05-10T18:01:02;13.40;99.90
11136;DHT22;5622;50.840;4.948;2023-05-10T18:03:31;13.40;99.90
11136;DHT22;5622;50.840;4.948;2023-05-10T18:06:01;13.40;99.90
11136;DHT22;5622;50.840;4.948;2023-05-10T18:08:28;13.40;99.90
11136;DHT22;5622;50.840;4.948;2023-05-10T18:10:55;13.40;99.90
11136;DHT22;5622;50.840;4.948;2023-05-10T18:13:22;13.40;99.90
11136;DHT22;5622;50.840;4.948;2023-05-10T18:15:50;13.40;99.90
11136;DHT22;5622;50.840;4.948;2023-05-10T18:18:17;13.40;99.90
11136;DHT22;5622;50.840;4.948;2023-05-10T18:20:46;13.40;99.90
11136;DHT22;5622;50.840;4.948;2023-05-10T18:23:15;13.40;99.90
11136;DHT22;5622;50.840;4.948;2023-05-10T18:25:42;13.40;99.90
11136;DHT22;5622;50.840;4.948;2023-05-10T18:28:09;13.40;99.90
11136;DHT22;5622;50.840;4.948;2023-05-10T18:30:36;13.40;99.90
11136;DHT22;5622;50.840;4.948;2023-05-10T18:33:05;13.40;99.90
11136;DHT22;5622;50.840;4.948;2023-05-10T18:35:32;13.30;99.90
11136;DHT22;5622;50.840;4.948;2023-05-10T18:38:02;13.30;99.90
11136;DHT22;5622;50.840;4.948;2023-05-10T18:40:29;13.30;99.90
11136;DHT22;5622;50.840;4.948;2023-05-10T18:42:56;13.30;99.90
11136;DHT22;5622;50.840;4.948;2023-05-10T18:45:23;13.30;99.90
11136;DHT22;5622;50.840;4.948;2023-05-10T18:47:50;13.30;99.90
11136;DHT22;5622;50.840;4.948;2023-05-10T18:50:17;13.30;99.90
11136;DHT22;5622;50.840;4.948;2023-05-10T18:52:44;13.30;99.90
11136;DHT22;5622;50.840;4.948;2023-05-10T18:55:13;13.30;99.90
11136;DHT22;5622;50.840;4.948;2023-05-10T18:57:40;13.20;99.90
11136;DHT22;5622;50.840;4.948;2023-05-10T19:00:08;13.30;99.90
11136;DHT22;5622;50.840;4.948;2023-05-10T19:02:36;13.20;99.90
11136;DHT22;5622;50.840;4.948;2023-05-10T19:05:04;13.20;99.90
11136;DHT22;5622;50.840;4.948;2023-05-10T19:07:31;13.20;99.90
11136;DHT22;5622;50.840;4.948;2023-05-10T19:09:58;13.20;99.90
11136;DHT22;5622;50.840;4.948;2023-05-10T19:12:27;13.20;99.90
11136;DHT22;5622;50.840;4.948;2023-05-10T19:14:54;13.20;99.90
11136;DHT22;5622;50.840;4.948;2023-05-10T19:17:21;13.20;99.90
11136;DHT22;5622;50.840;4.948;2023-05-10T19:19:48;13.20;99.90
11136;DHT22;5622;50.840;4.948;2023-05-10T19:22:15;13.20;99.90
11136;DHT22;5622;50.840;4.948;2023-05-10T19:24:42;13.20;99.90
11136;DHT22;5622;50.840;4.948;2023-05-10T19:27:09;13.20;99.90
11136;DHT22;5622;50.840;4.948;2023-05-10T19:29:38;13.20;99.90
11136;DHT22;5622;50.840;4.948;2023-05-10T19:32:05;13.10;99.90
11136;DHT22;5622;50.840;4.948;2023-05-10T19:34:32;13.20;99.90
11136;DHT22;5622;50.840;4.948;2023-05-10T19:36:59;13.20;99.90
11136;DHT22;5622;50.840;4.948;2023-05-10T19:39:26;13.20;99.90
11136;DHT22;5622;50.840;4.948;2023-05-10T19:41:55;13.20;99.90
11136;DHT22;5622;50.840;4.948;2023-05-10T19:44:22;13.10;99.90
11136;DHT22;5622;50.840;4.948;2023-05-10T19:46:51;13.10;99.90
11136;DHT22;5622;50.840;4.948;2023-05-10T19:49:18;13.10;99.90
11136;DHT22;5622;50.840;4.948;2023-05-10T19:51:45;13.10;99.90
11136;DHT22;5622;50.840;4.948;2023-05-10T19:54:12;13.10;99.90
11136;DHT22;5622;50.840;4.948;2023-05-10T19:56:39;13.10;99.90
11136;DHT22;5622;50.840;4.948;2023-05-10T19:59:06;13.10;99.90
11136;DHT22;5622;50.840;4.948;2023-05-10T20:01:34;13.10;99.90
11136;DHT22;5622;50.840;4.948;2023-05-10T20:04:02;13.10;99.90